createdAt,value
2023-04-18T00:01:27.803Z,66.47
2023-04-18T00:03:56.262Z,66.16
2023-04-18T00:06:26.246Z,66.29
2023-04-18T00:08:54.262Z,66.05
2023-04-18T00:11:22.431Z,66.62
2023-04-18T00:13:50.408Z,66.88
2023-04-18T00:16:18.788Z,66.44
2023-04-18T00:18:46.757Z,66.97
2023-04-18T00:21:15.077Z,66.86
2023-04-18T00:23:43.598Z,67.16
2023-04-18T00:26:12.300Z,67.01
2023-04-18T00:28:40.730Z,67.17
2023-04-18T00:31:09.235Z,67.28
2023-04-18T00:33:37.167Z,66.93
2023-04-18T00:36:05.981Z,69.01
2023-04-18T00:38:36.601Z,67.53
2023-04-18T00:41:04.891Z,67.66
2023-04-18T00:43:35.300Z,67.54
2023-04-18T00:46:03.761Z,67.85
2023-04-18T00:48:31.927Z,67.88
2023-04-18T00:51:00.926Z,67.73
2023-04-18T00:53:29.632Z,68.05
2023-04-18T00:55:58.374Z,67.77
2023-04-18T00:58:26.853Z,68.54
2023-04-18T01:00:55.171Z,68.67
2023-04-18T01:03:23.336Z,68.81
2023-04-18T01:05:52.028Z,68.38
2023-04-18T01:08:21.826Z,68.65
2023-04-18T01:10:50.214Z,68.04
2023-04-18T01:13:20.439Z,68.34
2023-04-18T01:15:51.077Z,67.92
2023-04-18T01:18:19.429Z,68.07
2023-04-18T01:20:50.207Z,68.49
2023-04-18T01:23:21.827Z,68.87
2023-04-18T01:25:51.269Z,68.81
2023-04-18T01:28:21.819Z,68.92
2023-04-18T01:30:50.247Z,69.10
2023-04-18T01:33:18.268Z,69.11
2023-04-18T01:35:50.286Z,68.93
2023-04-18T01:38:18.097Z,68.69
2023-04-18T01:40:46.639Z,68.22
2023-04-18T01:43:16.162Z,68.60
2023-04-18T01:45:44.272Z,68.83
2023-04-18T01:48:12.110Z,68.87
2023-04-18T01:50:43.424Z,68.50
2023-04-18T01:53:12.042Z,69.09
2023-04-18T01:55:40.347Z,69.68
2023-04-18T01:58:08.314Z,69.06
2023-04-18T02:00:37.886Z,70.06
2023-04-18T02:03:06.873Z,69.66
2023-04-18T02:05:37.783Z,69.96
2023-04-18T02:08:07.924Z,70.62
2023-04-18T02:10:36.154Z,70.44
2023-04-18T02:13:04.488Z,70.30
2023-04-18T02:15:33.425Z,69.57
2023-04-18T02:18:01.802Z,70.09
2023-04-18T02:20:34.152Z,70.29
2023-04-18T02:23:02.863Z,69.19
2023-04-18T02:25:31.693Z,69.25
2023-04-18T02:28:18.103Z,69.07
2023-04-18T02:30:46.292Z,69.25
2023-04-18T02:33:14.188Z,68.93
2023-04-18T02:35:42.510Z,69.60
2023-04-18T02:38:10.375Z,69.34
2023-04-18T02:40:38.875Z,69.04
2023-04-18T02:43:06.822Z,69.23
2023-04-18T02:45:35.040Z,68.71
2023-04-18T02:48:03.068Z,68.36
2023-04-18T02:50:32.542Z,68.11
2023-04-18T02:53:00.542Z,67.80
2023-04-18T02:55:39.284Z,67.99
2023-04-18T02:58:07.478Z,67.79
2023-04-18T03:01:02.037Z,67.66
2023-04-18T03:03:32.539Z,66.86
2023-04-18T03:06:21.090Z,66.65
2023-04-18T03:08:49.406Z,66.11
2023-04-18T03:11:18.256Z,65.98
2023-04-18T03:13:46.351Z,65.62
2023-04-18T03:16:16.857Z,66.62
2023-04-18T03:18:45.720Z,65.67
2023-04-18T03:21:15.097Z,66.56
2023-04-18T03:23:43.748Z,66.42
2023-04-18T03:26:14.084Z,66.19
2023-04-18T03:28:43.666Z,65.98
2023-04-18T03:31:12.646Z,65.93
2023-04-18T03:33:44.575Z,65.58
2023-04-18T03:36:15.884Z,65.32
2023-04-18T03:38:45.070Z,65.30
2023-04-18T03:41:13.282Z,65.12
2023-04-18T03:43:41.129Z,65.08
2023-04-18T03:46:09.460Z,65.34
2023-04-18T03:48:38.293Z,65.87
2023-04-18T03:51:10.806Z,65.76
2023-04-18T03:53:39.953Z,65.48
2023-04-18T03:56:08.239Z,64.92
2023-04-18T03:58:48.752Z,65.27
2023-04-18T04:01:17.562Z,64.72
2023-04-18T04:03:45.658Z,64.63
2023-04-18T04:06:14.284Z,64.53
2023-04-18T04:08:42.364Z,64.61
2023-04-18T04:11:10.762Z,64.65
2023-04-18T04:13:39.395Z,64.68
2023-04-18T04:16:08.650Z,64.78
2023-04-18T04:18:37.565Z,65.06
2023-04-18T04:21:07.072Z,65.10
2023-04-18T04:23:46.926Z,64.85
2023-04-18T04:26:27.939Z,64.42
2023-04-18T04:29:16.615Z,64.56
2023-04-18T04:31:47.425Z,64.59
2023-04-18T04:34:20.689Z,64.38
2023-04-18T04:36:49.373Z,64.32
2023-04-18T04:39:20.195Z,64.18
2023-04-18T04:42:12.526Z,64.69
2023-04-18T04:44:53.791Z,64.36
2023-04-18T04:47:23.226Z,63.99
2023-04-18T04:49:51.177Z,63.88
2023-04-18T04:52:19.333Z,63.58
2023-04-18T04:54:47.463Z,63.02
2023-04-18T04:57:19.032Z,63.61
2023-04-18T04:59:46.870Z,63.38
2023-04-18T05:02:15.449Z,63.06
2023-04-18T05:04:43.706Z,62.79
2023-04-18T05:07:12.123Z,62.56
2023-04-18T05:09:40.102Z,62.83
2023-04-18T05:12:08.616Z,62.75
2023-04-18T05:14:36.505Z,62.40
2023-04-18T05:17:05.032Z,62.76
2023-04-18T05:19:33.017Z,62.33
2023-04-18T05:22:01.511Z,62.68
2023-04-18T05:24:30.139Z,62.44
2023-04-18T05:26:58.574Z,62.55
2023-04-18T05:29:26.748Z,62.66
2023-04-18T05:31:56.642Z,62.41
2023-04-18T05:34:24.729Z,62.56
2023-04-18T05:36:52.963Z,62.72
2023-04-18T05:39:20.955Z,62.27
2023-04-18T05:41:49.273Z,62.00
2023-04-18T05:44:17.945Z,61.94
2023-04-18T05:46:47.127Z,61.92
2023-04-18T05:49:15.213Z,61.41
2023-04-18T05:51:43.331Z,61.14
2023-04-18T05:54:11.415Z,61.13
2023-04-18T05:56:41.540Z,60.80
2023-04-18T05:59:09.412Z,60.71
2023-04-18T06:01:37.687Z,60.18
2023-04-18T06:04:06.533Z,60.23
2023-04-18T06:06:36.018Z,59.57
2023-04-18T06:09:04.184Z,60.34
2023-04-18T06:11:35.968Z,60.06
2023-04-18T06:14:04.212Z,60.08
2023-04-18T06:16:32.492Z,59.43
2023-04-18T06:19:01.338Z,59.08
2023-04-18T06:21:29.854Z,59.14
2023-04-18T06:23:58.014Z,59.00
2023-04-18T06:26:26.431Z,59.29
2023-04-18T06:28:54.614Z,58.76
2023-04-18T06:31:23.114Z,58.81
2023-04-18T06:33:51.564Z,59.00
2023-04-18T06:36:20.240Z,58.64
2023-04-18T06:38:48.209Z,58.42
2023-04-18T06:41:16.481Z,58.25
2023-04-18T06:43:55.709Z,57.86
2023-04-18T06:46:30.766Z,57.65
2023-04-18T06:48:59.105Z,58.12
2023-04-18T06:51:27.738Z,57.99
2023-04-18T06:53:55.925Z,57.51
2023-04-18T06:56:24.184Z,57.80
2023-04-18T06:58:53.234Z,56.48
2023-04-18T07:01:21.594Z,56.39
2023-04-18T07:03:49.598Z,56.63
2023-04-18T07:06:19.018Z,56.56
2023-04-18T07:08:46.908Z,57.26
2023-04-18T07:11:15.938Z,57.33
2023-04-18T07:13:43.865Z,57.10
2023-04-18T07:16:12.035Z,57.01
2023-04-18T07:18:39.853Z,57.93
2023-04-18T07:21:08.281Z,57.46
2023-04-18T07:23:36.706Z,57.58
2023-04-18T07:26:06.011Z,57.84
2023-04-18T07:28:33.993Z,57.70
2023-04-18T07:31:03.959Z,57.79
2023-04-18T07:33:34.085Z,57.13
2023-04-18T07:36:03.352Z,57.62
2023-04-18T07:38:31.368Z,57.76
2023-04-18T07:41:01.605Z,56.67
2023-04-18T07:43:29.663Z,56.42
2023-04-18T07:45:58.303Z,56.66
2023-04-18T07:48:26.275Z,55.74
2023-04-18T07:50:54.667Z,55.79
2023-04-18T07:53:22.963Z,56.02
2023-04-18T07:55:51.436Z,55.96
2023-04-18T07:58:19.549Z,56.17
2023-04-18T08:00:47.756Z,56.00
2023-04-18T08:03:16.570Z,55.82
2023-04-18T08:05:45.042Z,56.14
2023-04-18T08:08:13.575Z,55.26
2023-04-18T08:10:41.728Z,55.61
2023-04-18T08:13:10.096Z,56.16
2023-04-18T08:15:38.347Z,56.29
2023-04-18T08:18:06.552Z,55.64
2023-04-18T08:20:37.445Z,55.78
2023-04-18T08:23:09.445Z,55.83
2023-04-18T08:25:40.038Z,56.48
2023-04-18T08:28:08.657Z,56.52
2023-04-18T08:30:37.151Z,56.43
2023-04-18T08:33:05.370Z,55.98
2023-04-18T08:35:35.540Z,55.97
2023-04-18T08:38:23.725Z,55.66
2023-04-18T08:41:10.886Z,55.05
2023-04-18T08:43:38.778Z,55.60
2023-04-18T08:46:08.157Z,55.63
2023-04-18T08:48:36.990Z,55.88
2023-04-18T08:51:05.657Z,55.52
2023-04-18T08:53:34.523Z,55.71
2023-04-18T08:56:03.167Z,55.58
2023-04-18T08:58:34.117Z,55.25
2023-04-18T09:01:02.653Z,55.79
2023-04-18T09:03:41.169Z,56.01
2023-04-18T09:06:14.633Z,56.03
2023-04-18T09:08:44.258Z,55.40
2023-04-18T09:11:32.648Z,55.22
2023-04-18T09:14:00.749Z,55.39
2023-04-18T09:16:47.094Z,54.81
2023-04-18T09:19:19.363Z,54.14
2023-04-18T09:21:58.203Z,53.76
2023-04-18T09:24:27.506Z,54.41
2023-04-18T09:26:58.929Z,54.15
2023-04-18T09:29:47.450Z,53.69
2023-04-18T09:32:27.333Z,53.16
2023-04-18T09:34:58.618Z,52.65
2023-04-18T09:37:31.048Z,52.76
2023-04-18T09:39:59.061Z,52.78
2023-04-18T09:42:36.480Z,52.37
2023-04-18T09:45:08.746Z,52.44
2023-04-18T09:47:39.185Z,52.45
2023-04-18T09:50:10.081Z,51.86
2023-04-18T09:52:41.146Z,51.90
2023-04-18T09:55:11.781Z,51.40
2023-04-18T09:57:42.811Z,51.04
2023-04-18T10:00:17.686Z,50.94
2023-04-18T10:02:58.248Z,50.88
2023-04-18T10:05:34.639Z,50.08
2023-04-18T10:08:04.080Z,50.37
2023-04-18T10:10:33.170Z,49.77
2023-04-18T10:13:03.458Z,50.85
2023-04-18T10:15:32.598Z,49.92
2023-04-18T10:18:05.860Z,49.21
2023-04-18T10:20:35.648Z,48.02
2023-04-18T10:23:43.389Z,48.73
2023-04-18T10:26:11.928Z,48.52
2023-04-18T10:28:54.878Z,48.74
2023-04-18T10:31:25.107Z,48.53
2023-04-18T10:34:04.587Z,48.15
2023-04-18T10:36:33.832Z,47.37
2023-04-18T10:39:21.814Z,46.79
2023-04-18T10:41:51.267Z,47.66
2023-04-18T10:44:23.064Z,47.21
2023-04-18T10:46:51.477Z,47.36
2023-04-18T10:49:26.417Z,46.99
2023-04-18T10:51:58.741Z,46.83
2023-04-18T10:54:28.692Z,47.61
2023-04-18T10:57:04.812Z,47.76
2023-04-18T10:59:34.966Z,47.44
2023-04-18T11:02:18.242Z,47.07
2023-04-18T11:04:51.822Z,46.40
2023-04-18T11:07:20.324Z,46.64
2023-04-18T11:09:55.520Z,47.63
2023-04-18T11:12:23.711Z,47.60
2023-04-18T11:14:53.028Z,47.35
2023-04-18T11:17:36.093Z,47.46
2023-04-18T11:20:09.421Z,46.55
2023-04-18T11:22:55.322Z,46.73
2023-04-18T11:25:45.109Z,47.62
2023-04-18T11:28:13.924Z,47.61
2023-04-18T11:30:42.230Z,47.36
2023-04-18T11:33:12.339Z,47.34
2023-04-18T11:35:42.548Z,47.88
2023-04-18T11:38:13.390Z,48.02
2023-04-18T11:40:51.324Z,48.71
2023-04-18T11:43:24.336Z,48.35
2023-04-18T11:46:00.292Z,48.00
2023-04-18T11:48:54.614Z,47.76
2023-04-18T11:51:38.917Z,47.63
2023-04-18T11:54:06.893Z,47.51
2023-04-18T11:56:36.667Z,47.85
2023-04-18T11:59:11.601Z,47.43
2023-04-18T12:01:39.898Z,47.16
2023-04-18T12:04:08.969Z,46.94
2023-04-18T12:06:55.682Z,46.44
2023-04-18T12:09:25.341Z,47.19
2023-04-18T12:12:04.600Z,46.64
2023-04-18T12:14:32.348Z,46.69
2023-04-18T12:17:03.827Z,47.31
2023-04-18T12:19:33.112Z,48.08
2023-04-18T12:22:03.430Z,48.49
2023-04-18T12:24:32.343Z,48.22
2023-04-18T12:27:00.842Z,48.31
2023-04-18T12:29:29.491Z,47.99
2023-04-18T12:31:57.663Z,47.71
2023-04-18T12:34:25.558Z,47.72
2023-04-18T12:36:54.255Z,48.02
2023-04-18T12:39:22.134Z,48.63
2023-04-18T12:41:50.258Z,48.67
2023-04-18T12:44:18.443Z,48.79
2023-04-18T12:46:46.662Z,48.83
2023-04-18T12:49:14.489Z,48.56
2023-04-18T12:51:43.912Z,48.90
2023-04-18T12:54:11.963Z,48.99
2023-04-18T12:56:40.251Z,49.10
2023-04-18T12:59:08.339Z,49.38
2023-04-18T13:01:36.596Z,49.29
2023-04-18T13:04:12.508Z,49.35
2023-04-18T13:06:41.791Z,49.31
2023-04-18T13:09:10.610Z,49.67
2023-04-18T13:11:38.945Z,49.58
2023-04-18T13:14:06.811Z,49.72
2023-04-18T13:16:35.076Z,50.25
2023-04-18T13:19:03.111Z,50.08
2023-04-18T13:21:33.315Z,50.05
2023-04-18T13:24:01.509Z,50.16
2023-04-18T13:26:29.757Z,50.41
2023-04-18T13:28:58.778Z,50.15
2023-04-18T13:31:27.772Z,50.72
2023-04-18T13:33:55.801Z,50.87
2023-04-18T13:36:27.349Z,50.80
2023-04-18T13:38:55.824Z,50.75
2023-04-18T13:41:24.498Z,51.11
2023-04-18T13:43:52.410Z,51.12
2023-04-18T13:46:20.758Z,51.20
2023-04-18T13:48:48.635Z,51.65
2023-04-18T13:51:17.230Z,51.97
2023-04-18T13:53:45.216Z,51.99
2023-04-18T13:56:13.357Z,51.79
2023-04-18T13:58:41.347Z,52.16
2023-04-18T14:01:09.846Z,51.69
2023-04-18T14:03:38.911Z,51.37
2023-04-18T14:06:08.361Z,51.31
2023-04-18T14:08:36.318Z,52.17
2023-04-18T14:11:04.455Z,52.86
2023-04-18T14:13:32.514Z,52.67
2023-04-18T14:16:01.334Z,52.18
2023-04-18T14:18:29.309Z,51.95
2023-04-18T14:20:57.481Z,52.31
2023-04-18T14:23:26.266Z,52.21
2023-04-18T14:25:54.610Z,52.38
2023-04-18T14:28:25.150Z,52.72
2023-04-18T14:30:58.046Z,52.19
2023-04-18T14:33:26.474Z,51.69
2023-04-18T14:35:54.682Z,51.74
2023-04-18T14:38:22.574Z,52.10
2023-04-18T14:40:50.797Z,51.68
2023-04-18T14:43:18.925Z,51.69
2023-04-18T14:45:47.390Z,52.00
2023-04-18T14:48:15.250Z,52.44
2023-04-18T14:50:44.033Z,52.56
2023-04-18T14:53:12.404Z,52.33
2023-04-18T14:55:40.998Z,51.85
2023-04-18T14:58:08.974Z,52.20
2023-04-18T15:00:37.513Z,52.29
2023-04-18T15:03:06.266Z,52.43
2023-04-18T15:05:39.038Z,52.47
2023-04-18T15:08:07.221Z,52.60
2023-04-18T15:10:36.149Z,52.97
2023-04-18T15:13:04.380Z,53.33
2023-04-18T15:15:35.911Z,53.13
2023-04-18T15:18:04.809Z,53.62
2023-04-18T15:20:34.629Z,53.29
2023-04-18T15:23:03.156Z,54.18
2023-04-18T15:25:31.613Z,54.25
2023-04-18T15:27:59.902Z,53.83
2023-04-18T15:30:28.342Z,54.52
2023-04-18T15:32:56.388Z,53.93
2023-04-18T15:35:24.677Z,54.21
2023-04-18T15:37:54.269Z,54.51
2023-04-18T15:40:22.674Z,54.58
2023-04-18T15:42:51.272Z,54.74
2023-04-18T15:45:19.570Z,54.76
2023-04-18T15:47:47.783Z,54.97
2023-04-18T15:50:16.626Z,55.19
2023-04-18T15:52:44.659Z,55.50
2023-04-18T15:55:13.720Z,56.04
2023-04-18T15:57:42.070Z,55.94
2023-04-18T16:00:21.166Z,56.27
2023-04-18T16:02:49.695Z,56.17
2023-04-18T16:05:17.987Z,56.17
2023-04-18T16:07:46.408Z,56.01
2023-04-18T16:10:15.520Z,55.81
2023-04-18T16:12:43.637Z,55.75
2023-04-18T16:15:12.424Z,56.19
2023-04-18T16:17:40.401Z,56.52
2023-04-18T16:20:09.369Z,56.63
2023-04-18T16:22:37.837Z,56.61
2023-04-18T16:25:06.469Z,56.47
2023-04-18T16:27:34.479Z,56.85
2023-04-18T16:30:03.859Z,56.44
2023-04-18T16:32:34.862Z,56.72
2023-04-18T16:35:06.599Z,56.07
2023-04-18T16:37:34.681Z,56.36
2023-04-18T16:40:05.994Z,56.75
2023-04-18T16:42:34.434Z,57.27
2023-04-18T16:45:03.625Z,57.04
2023-04-18T16:47:36.991Z,56.68
2023-04-18T16:50:06.216Z,56.74
2023-04-18T16:52:34.658Z,57.05
2023-04-18T16:55:02.927Z,57.42
2023-04-18T16:57:31.309Z,57.20
2023-04-18T17:00:02.430Z,57.08
2023-04-18T17:02:35.411Z,57.60
2023-04-18T17:05:03.944Z,56.72
2023-04-18T17:07:31.869Z,57.05
2023-04-18T17:10:00.140Z,57.23
2023-04-18T17:12:28.109Z,57.16
2023-04-18T17:14:56.416Z,56.90
2023-04-18T17:17:24.291Z,56.62
2023-04-18T17:19:52.524Z,56.73
2023-04-18T17:22:20.761Z,56.74
2023-04-18T17:24:49.398Z,56.34
2023-04-18T17:27:18.190Z,56.54
2023-04-18T17:29:46.605Z,56.61
2023-04-18T17:32:14.902Z,56.16
2023-04-18T17:34:43.377Z,55.80
2023-04-18T17:37:11.851Z,55.99
2023-04-18T17:39:40.889Z,56.36
2023-04-18T17:42:09.746Z,56.16
2023-04-18T17:44:39.966Z,56.08
2023-04-18T17:47:08.294Z,56.04
2023-04-18T17:49:36.635Z,55.84
2023-04-18T17:52:05.223Z,55.82
2023-04-18T17:54:33.582Z,55.83
2023-04-18T17:57:02.723Z,55.55
2023-04-18T17:59:30.987Z,55.70
2023-04-18T18:01:59.889Z,55.60
2023-04-18T18:04:28.309Z,55.73
2023-04-18T18:06:56.991Z,55.52
2023-04-18T18:09:25.272Z,55.04
2023-04-18T18:11:55.375Z,55.22
2023-04-18T18:14:24.528Z,55.27
2023-04-18T18:16:52.637Z,55.77
2023-04-18T18:19:21.786Z,55.82
2023-04-18T18:21:49.596Z,55.98
2023-04-18T18:24:18.991Z,55.47
2023-04-18T18:26:46.915Z,54.48
2023-04-18T18:29:15.381Z,55.19
2023-04-18T18:31:43.451Z,54.58
2023-04-18T18:34:12.271Z,54.67
2023-04-18T18:36:40.496Z,54.76
2023-04-18T18:39:08.851Z,54.96
2023-04-18T18:41:36.840Z,54.28
2023-04-18T18:44:05.343Z,54.59
2023-04-18T18:46:33.398Z,54.79
2023-04-18T18:49:01.754Z,54.89
2023-04-18T18:51:29.737Z,55.47
2023-04-18T18:53:58.256Z,55.89
2023-04-18T18:56:26.511Z,55.63
2023-04-18T18:58:57.886Z,56.32
2023-04-18T19:01:25.975Z,56.40
2023-04-18T19:03:54.564Z,56.25
2023-04-18T19:06:22.437Z,56.39
2023-04-18T19:08:50.698Z,56.63
2023-04-18T19:11:19.519Z,56.63
2023-04-18T19:13:47.759Z,56.61
2023-04-18T19:16:15.732Z,57.34
2023-04-18T19:18:47.269Z,56.97
2023-04-18T19:21:16.263Z,56.68
2023-04-18T19:23:44.516Z,57.03
2023-04-18T19:26:12.570Z,57.43
2023-04-18T19:28:41.686Z,57.51
2023-04-18T19:31:09.857Z,57.58
2023-04-18T19:33:38.493Z,57.39
2023-04-18T19:36:06.715Z,57.94
2023-04-18T19:38:35.395Z,57.33
2023-04-18T19:41:03.569Z,57.74
2023-04-18T19:43:31.871Z,57.63
2023-04-18T19:46:00.170Z,58.06
2023-04-18T19:48:28.395Z,58.09
2023-04-18T19:50:57.670Z,57.56
2023-04-18T19:53:26.149Z,58.16
2023-04-18T19:55:55.266Z,58.72
2023-04-18T19:58:45.364Z,59.48
2023-04-18T20:01:15.035Z,58.49
2023-04-18T20:03:45.928Z,59.08
2023-04-18T20:06:14.186Z,58.68
2023-04-18T20:08:42.526Z,58.11
2023-04-18T20:11:11.847Z,58.65
2023-04-18T20:13:40.584Z,58.56
2023-04-18T20:16:09.530Z,58.80
2023-04-18T20:18:39.592Z,59.13
2023-04-18T20:21:09.502Z,58.93
2023-04-18T20:23:38.378Z,58.73
2023-04-18T20:26:07.139Z,59.17
2023-04-18T20:28:36.531Z,58.47
2023-04-18T20:31:04.989Z,58.82
2023-04-18T20:33:33.642Z,58.21
2023-04-18T20:36:01.497Z,58.00
2023-04-18T20:38:29.961Z,58.72
2023-04-18T20:41:01.040Z,58.15
2023-04-18T20:43:29.622Z,57.41
2023-04-18T20:45:58.162Z,57.69
2023-04-18T20:48:26.571Z,58.18
2023-04-18T20:50:54.405Z,57.55
2023-04-18T20:53:25.427Z,57.92
2023-04-18T20:55:53.508Z,57.41
2023-04-18T20:58:21.788Z,57.72
2023-04-18T21:00:49.847Z,57.52
2023-04-18T21:03:18.369Z,57.43
2023-04-18T21:05:46.417Z,58.00
2023-04-18T21:08:14.655Z,57.65
2023-04-18T21:10:42.519Z,57.41
2023-04-18T21:13:12.769Z,57.39
2023-04-18T21:15:42.914Z,57.29
2023-04-18T21:18:11.503Z,57.21
2023-04-18T21:20:39.452Z,57.75
2023-04-18T21:23:07.765Z,57.76
2023-04-18T21:25:35.571Z,58.25
2023-04-18T21:28:04.017Z,58.23
2023-04-18T21:30:31.881Z,59.32
2023-04-18T21:33:00.305Z,58.25
2023-04-18T21:35:30.089Z,58.32
2023-04-18T21:37:58.842Z,58.89
2023-04-18T21:40:27.258Z,58.60
2023-04-18T21:42:55.789Z,59.16
2023-04-18T21:45:23.840Z,59.67
2023-04-18T21:47:53.850Z,59.48
2023-04-18T21:50:22.915Z,60.82
2023-04-18T21:52:51.650Z,60.29
2023-04-18T21:55:19.650Z,61.13
2023-04-18T21:57:48.864Z,60.46
2023-04-18T22:00:17.280Z,61.24
2023-04-18T22:02:45.816Z,61.01
2023-04-18T22:05:14.349Z,60.88
2023-04-18T22:07:56.951Z,60.86
2023-04-18T22:10:25.848Z,61.69
2023-04-18T22:12:56.264Z,61.90
2023-04-18T22:15:24.813Z,61.82
2023-04-18T22:17:54.565Z,61.52
2023-04-18T22:20:25.919Z,61.97
2023-04-18T22:22:55.659Z,62.01
2023-04-18T22:25:23.718Z,62.11
2023-04-18T22:27:51.927Z,62.67
2023-04-18T22:30:23.079Z,62.59
2023-04-18T22:32:52.145Z,62.86
2023-04-18T22:35:20.244Z,63.11
2023-04-18T22:37:48.453Z,63.11
2023-04-18T22:40:16.870Z,63.26
2023-04-18T22:42:45.445Z,63.42
2023-04-18T22:45:13.796Z,63.34
2023-04-18T22:47:44.222Z,63.34
2023-04-18T22:50:12.306Z,63.42
2023-04-18T22:52:41.451Z,63.47
2023-04-18T22:55:09.985Z,63.60
2023-04-18T22:57:38.886Z,63.73
2023-04-18T23:00:07.427Z,63.32
2023-04-18T23:02:36.217Z,63.72
2023-04-18T23:05:06.196Z,62.97
2023-04-18T23:07:37.345Z,62.98
2023-04-18T23:10:07.028Z,62.86
2023-04-18T23:12:35.299Z,63.46
2023-04-18T23:15:04.600Z,63.28
2023-04-18T23:17:37.987Z,63.27
2023-04-18T23:20:10.243Z,63.34
2023-04-18T23:22:39.270Z,63.75
2023-04-18T23:25:07.364Z,62.88
2023-04-18T23:27:35.628Z,62.80
2023-04-18T23:30:03.515Z,62.96
2023-04-18T23:32:33.958Z,62.83
2023-04-18T23:35:04.477Z,62.81
2023-04-18T23:37:34.616Z,63.34
2023-04-18T23:40:05.250Z,63.75
2023-04-18T23:42:37.238Z,63.62
2023-04-18T23:45:06.248Z,63.05
2023-04-18T23:47:35.698Z,63.33
2023-04-18T23:50:03.729Z,63.61
2023-04-18T23:52:34.406Z,62.95
2023-04-18T23:55:02.649Z,63.20
2023-04-18T23:57:34.620Z,63.31
